createdAt,value
2024-05-09T00:02:11.626Z,2.80
2024-05-09T00:04:43.243Z,2.87
2024-05-09T00:07:16.149Z,2.87
2024-05-09T00:09:48.164Z,2.84
2024-05-09T00:12:18.138Z,2.76
2024-05-09T00:14:48.695Z,2.75
2024-05-09T00:17:18.686Z,2.83
2024-05-09T00:19:49.406Z,2.94
2024-05-09T00:22:21.967Z,2.98
2024-05-09T00:24:52.367Z,3.08
2024-05-09T00:27:22.932Z,3.10
2024-05-09T00:29:53.372Z,3.08
2024-05-09T00:32:23.464Z,3.03
2024-05-09T00:34:53.993Z,3.13
2024-05-09T00:37:26.664Z,3.17
2024-05-09T00:39:57.006Z,3.22
2024-05-09T00:42:26.957Z,3.22
2024-05-09T00:44:57.910Z,3.24
2024-05-09T00:47:28.069Z,3.27
2024-05-09T00:49:58.787Z,3.25
2024-05-09T00:52:31.841Z,3.31
2024-05-09T00:55:03.223Z,3.31
2024-05-09T00:57:33.197Z,3.31
2024-05-09T01:00:05.995Z,3.33
2024-05-09T01:02:42.079Z,3.33
2024-05-09T01:05:13.052Z,3.32
2024-05-09T01:07:46.422Z,3.33
2024-05-09T01:10:24.076Z,3.33
2024-05-09T01:13:01.649Z,3.33
2024-05-09T01:15:32.238Z,3.35
2024-05-09T01:18:04.267Z,3.37
2024-05-09T01:20:41.587Z,3.39
2024-05-09T01:23:17.128Z,3.37
2024-05-09T01:25:48.159Z,3.36
2024-05-09T01:28:18.330Z,3.42
2024-05-09T01:30:49.033Z,3.41
2024-05-09T01:33:19.103Z,3.44
2024-05-09T01:35:49.514Z,3.40
2024-05-09T01:38:22.274Z,3.41
2024-05-09T01:40:53.149Z,3.42
2024-05-09T01:43:23.087Z,3.44
2024-05-09T01:45:53.691Z,3.46
2024-05-09T01:48:23.870Z,3.53
2024-05-09T01:50:55.073Z,3.57
2024-05-09T01:53:27.811Z,3.60
2024-05-09T01:55:58.685Z,3.67
2024-05-09T01:58:28.652Z,3.73
2024-05-09T02:00:59.065Z,3.78
2024-05-09T02:03:29.547Z,3.73
2024-05-09T02:06:00.218Z,3.69
2024-05-09T02:08:33.134Z,3.66
2024-05-09T02:11:04.225Z,3.69
2024-05-09T02:13:35.034Z,3.78
2024-05-09T02:16:06.561Z,3.81
2024-05-09T02:18:38.107Z,3.82
2024-05-09T02:21:08.939Z,3.79
2024-05-09T02:23:42.073Z,3.81
2024-05-09T02:26:12.484Z,3.83
2024-05-09T02:28:42.407Z,3.86
2024-05-09T02:31:34.210Z,3.88
2024-05-09T02:34:04.306Z,3.91
2024-05-09T02:36:35.015Z,3.95
2024-05-09T02:39:05.291Z,4.01
2024-05-09T02:41:36.591Z,4.04
2024-05-09T02:44:03.793Z,4.06
2024-05-09T02:46:35.555Z,4.04
2024-05-09T02:49:03.027Z,4.06
2024-05-09T02:51:33.492Z,4.05
2024-05-09T02:54:00.811Z,4.09
2024-05-09T02:56:34.364Z,4.12
2024-05-09T02:59:01.624Z,4.14
2024-05-09T03:01:34.306Z,4.15
2024-05-09T03:04:01.838Z,4.15
2024-05-09T03:06:32.278Z,4.11
2024-05-09T03:09:01.089Z,4.08
2024-05-09T03:11:34.556Z,4.05
2024-05-09T03:14:02.166Z,4.10
2024-05-09T03:16:32.579Z,4.18
2024-05-09T03:19:00.127Z,4.21
2024-05-09T03:21:30.568Z,4.25
2024-05-09T03:23:57.867Z,4.20
2024-05-09T03:26:28.403Z,4.25
2024-05-09T03:28:58.462Z,4.29
2024-05-09T03:31:28.820Z,4.30
2024-05-09T03:33:56.169Z,4.38
2024-05-09T03:36:26.684Z,4.46
2024-05-09T03:38:56.854Z,4.52
2024-05-09T03:41:24.639Z,4.56
2024-05-09T03:43:55.231Z,4.57
2024-05-09T03:46:28.789Z,4.62
2024-05-09T03:48:57.390Z,4.74
2024-05-09T03:51:27.883Z,4.80
2024-05-09T03:53:55.828Z,4.86
2024-05-09T03:56:26.715Z,4.93
2024-05-09T03:58:54.404Z,4.98
2024-05-09T04:01:25.375Z,5.01
2024-05-09T04:03:55.516Z,5.10
2024-05-09T04:06:27.797Z,5.10
2024-05-09T04:08:55.000Z,5.12
2024-05-09T04:11:25.862Z,5.24
2024-05-09T04:13:53.180Z,5.35
2024-05-09T04:16:24.698Z,5.56
2024-05-09T04:18:54.856Z,5.81
2024-05-09T04:21:25.726Z,6.03
2024-05-09T04:23:52.955Z,6.17
2024-05-09T04:26:23.391Z,6.31
2024-05-09T04:28:50.689Z,6.45
2024-05-09T04:31:21.448Z,6.53
2024-05-09T04:33:48.754Z,6.69
2024-05-09T04:36:22.142Z,6.91
2024-05-09T04:38:49.307Z,6.90
2024-05-09T04:41:22.923Z,7.14
2024-05-09T04:43:51.170Z,7.35
2024-05-09T04:46:22.013Z,7.36
2024-05-09T04:48:49.562Z,7.54
2024-05-09T04:51:32.719Z,7.65
2024-05-09T04:53:59.997Z,7.91
2024-05-09T04:56:32.379Z,8.09
2024-05-09T04:58:59.762Z,8.29
2024-05-09T05:01:31.298Z,8.49
2024-05-09T05:03:59.792Z,8.87
2024-05-09T05:06:34.033Z,9.08
2024-05-09T05:09:02.462Z,9.25
2024-05-09T05:11:33.372Z,9.42
2024-05-09T05:14:01.064Z,9.65
2024-05-09T05:16:36.750Z,9.84
2024-05-09T05:19:05.877Z,9.91
2024-05-09T05:21:40.638Z,10.00
2024-05-09T05:24:08.281Z,10.09
2024-05-09T05:26:40.425Z,9.92
2024-05-09T05:29:08.079Z,9.78
2024-05-09T05:31:38.604Z,9.63
2024-05-09T05:34:06.208Z,9.28
2024-05-09T05:36:36.590Z,9.23
2024-05-09T05:39:06.680Z,9.26
2024-05-09T05:41:37.477Z,9.36
2024-05-09T05:44:05.216Z,9.44
2024-05-09T05:46:35.936Z,9.54
2024-05-09T05:49:03.860Z,9.67
2024-05-09T05:51:37.658Z,9.85
2024-05-09T05:54:15.212Z,9.99
2024-05-09T05:56:47.316Z,10.16
2024-05-09T05:59:18.393Z,10.30
2024-05-09T06:01:50.048Z,10.49
2024-05-09T06:04:20.098Z,10.73
2024-05-09T06:06:52.541Z,11.03
2024-05-09T06:09:23.588Z,11.31
2024-05-09T06:11:55.488Z,11.29
2024-05-09T06:14:24.134Z,11.63
2024-05-09T06:16:58.674Z,11.57
2024-05-09T06:19:27.094Z,11.61
2024-05-09T06:21:59.144Z,11.47
2024-05-09T06:24:38.609Z,11.45
2024-05-09T06:27:24.971Z,11.60
2024-05-09T06:30:08.230Z,12.15
2024-05-09T06:32:50.238Z,12.10
2024-05-09T06:35:23.492Z,12.10
2024-05-09T06:37:53.907Z,12.38
2024-05-09T06:40:29.421Z,12.74
2024-05-09T06:43:05.959Z,12.71
2024-05-09T06:45:33.793Z,12.79
2024-05-09T06:48:04.346Z,12.92
2024-05-09T06:50:37.486Z,12.86
2024-05-09T06:53:12.305Z,13.07
2024-05-09T06:55:57.820Z,13.14
2024-05-09T06:58:28.720Z,13.16
2024-05-09T07:00:56.499Z,12.87
2024-05-09T07:03:27.952Z,12.89
2024-05-09T07:05:55.550Z,12.79
2024-05-09T07:08:26.304Z,12.85
2024-05-09T07:10:53.710Z,13.18
2024-05-09T07:13:27.465Z,13.24
2024-05-09T07:15:54.820Z,13.47
2024-05-09T07:18:25.592Z,13.71
2024-05-09T07:20:55.147Z,13.57
2024-05-09T07:23:25.710Z,13.46
2024-05-09T07:25:53.123Z,13.59
2024-05-09T07:28:26.526Z,13.73
2024-05-09T07:30:53.703Z,13.89
2024-05-09T07:33:25.394Z,13.80
2024-05-09T07:35:53.318Z,14.07
2024-05-09T07:38:24.461Z,14.28
2024-05-09T07:40:51.964Z,14.43
2024-05-09T07:43:23.022Z,14.63
2024-05-09T07:45:55.368Z,14.74
2024-05-09T07:50:01.352Z,14.84
2024-05-09T07:53:53.290Z,14.49
2024-05-09T07:56:26.286Z,15.09
2024-05-09T07:58:57.606Z,15.56
2024-05-09T08:05:01.853Z,15.81
2024-05-09T08:10:30.675Z,15.48
2024-05-09T08:13:23.632Z,15.07
2024-05-09T08:16:27.231Z,14.83
2024-05-09T08:19:03.027Z,14.50
2024-05-09T08:22:13.929Z,14.33
2024-05-09T08:25:11.906Z,14.30
2024-05-09T08:28:17.684Z,13.91
2024-05-09T08:38:28.283Z,14.02
2024-05-09T08:41:59.966Z,14.22
2024-05-09T08:56:18.547Z,14.39
2024-05-09T08:59:22.664Z,14.33
2024-05-09T09:02:21.592Z,14.16
2024-05-09T09:04:53.795Z,14.09
2024-05-09T09:07:55.343Z,14.25
2024-05-09T09:10:49.380Z,14.23
2024-05-09T09:16:21.356Z,14.36
2024-05-09T09:22:10.843Z,14.15
2024-05-09T09:24:45.192Z,14.36
2024-05-09T09:27:26.986Z,14.56
2024-05-09T09:30:27.301Z,14.52
2024-05-09T09:33:02.695Z,14.38
2024-05-09T09:35:52.268Z,14.45
2024-05-09T09:38:29.064Z,14.29
2024-05-09T09:41:10.264Z,14.55
2024-05-09T09:43:49.511Z,14.58
2024-05-09T09:46:36.352Z,14.52
2024-05-09T09:49:14.531Z,14.60
2024-05-09T09:52:02.055Z,14.65
2024-05-09T09:54:45.091Z,14.83
2024-05-09T09:57:19.846Z,14.91
2024-05-09T09:59:55.037Z,14.92
2024-05-09T10:02:29.891Z,14.94
2024-05-09T10:04:59.587Z,15.16
2024-05-09T10:07:31.636Z,15.28
2024-05-09T10:09:59.288Z,15.23
2024-05-09T10:12:31.158Z,15.34
2024-05-09T10:14:59.219Z,15.13
2024-05-09T10:17:39.358Z,15.13
2024-05-09T10:20:18.404Z,15.31
2024-05-09T10:25:56.005Z,15.06
2024-05-09T10:28:29.498Z,15.33
2024-05-09T10:31:05.984Z,15.29
2024-05-09T10:33:45.929Z,15.55
2024-05-09T10:36:14.323Z,15.78
2024-05-09T10:38:48.183Z,15.94
2024-05-09T10:41:18.093Z,16.10
2024-05-09T10:44:13.691Z,15.93
2024-05-09T10:46:59.006Z,15.89
2024-05-09T10:49:32.866Z,16.13
2024-05-09T10:52:04.381Z,16.25
2024-05-09T10:54:40.446Z,16.10
2024-05-09T10:57:08.788Z,16.14
2024-05-09T10:59:44.777Z,16.36
2024-05-09T11:02:16.277Z,16.61
2024-05-09T11:05:14.228Z,16.53
2024-05-09T11:07:51.233Z,16.42
2024-05-09T11:10:27.827Z,16.43
2024-05-09T11:13:04.267Z,16.59
2024-05-09T11:15:44.098Z,16.76
2024-05-09T11:18:24.286Z,16.80
2024-05-09T11:21:01.124Z,17.08
2024-05-09T11:23:30.917Z,17.24
2024-05-09T11:26:04.552Z,17.35
2024-05-09T11:28:34.101Z,17.38
2024-05-09T11:31:21.516Z,17.38
2024-05-09T11:33:58.278Z,17.45
2024-05-09T11:37:02.518Z,17.60
2024-05-09T11:39:53.302Z,17.60
2024-05-09T11:42:29.835Z,17.61
2024-05-09T11:44:57.140Z,17.64
2024-05-09T11:47:27.796Z,17.78
2024-05-09T11:49:57.825Z,17.41
2024-05-09T11:52:31.118Z,17.36
2024-05-09T11:54:59.445Z,17.78
2024-05-09T11:57:30.425Z,17.96
2024-05-09T11:59:57.845Z,17.76
2024-05-09T12:02:28.668Z,17.96
2024-05-09T12:04:56.016Z,17.59
2024-05-09T12:07:26.906Z,17.74
2024-05-09T12:09:57.313Z,17.95
2024-05-09T12:12:28.616Z,17.96
2024-05-09T12:14:56.019Z,17.98
2024-05-09T12:17:26.632Z,18.14
2024-05-09T12:19:54.212Z,18.74
2024-05-09T12:22:27.172Z,19.17
2024-05-09T12:24:57.151Z,19.62
2024-05-09T12:27:27.556Z,19.03
2024-05-09T12:29:55.144Z,19.07
2024-05-09T12:36:07.526Z,19.21
2024-05-09T12:38:37.703Z,19.30
2024-05-09T12:44:04.233Z,18.87
2024-05-09T12:46:37.442Z,18.32
2024-05-09T12:49:06.071Z,18.38
2024-05-09T12:51:47.755Z,18.51
2024-05-09T12:54:18.049Z,18.59
2024-05-09T12:59:37.466Z,19.00
2024-05-09T13:02:21.504Z,18.61
2024-05-09T13:07:46.345Z,18.62
2024-05-09T13:10:31.264Z,18.59
2024-05-09T13:13:06.724Z,18.27
2024-05-09T13:15:41.607Z,18.10
2024-05-09T13:18:10.678Z,17.93
2024-05-09T13:20:42.102Z,17.95
2024-05-09T13:23:10.292Z,18.04
2024-05-09T13:25:44.166Z,18.01
2024-05-09T13:28:14.755Z,18.18
2024-05-09T13:30:45.561Z,18.32
2024-05-09T13:33:14.475Z,18.43
2024-05-09T13:35:50.424Z,18.43
2024-05-09T13:38:22.913Z,18.21
2024-05-09T13:40:58.724Z,18.33
2024-05-09T13:43:28.771Z,18.71
2024-05-09T13:46:02.983Z,18.76
2024-05-09T13:48:32.649Z,18.62
2024-05-09T13:51:08.174Z,18.57
2024-05-09T13:53:35.699Z,18.64
2024-05-09T13:56:09.427Z,18.68
2024-05-09T13:58:42.891Z,18.68
2024-05-09T14:01:15.427Z,18.74
2024-05-09T14:03:43.453Z,18.71
2024-05-09T14:06:16.557Z,18.34
2024-05-09T14:08:46.121Z,18.32
2024-05-09T14:11:19.688Z,18.08
2024-05-09T14:13:55.400Z,18.23
2024-05-09T14:16:30.759Z,18.42
2024-05-09T14:19:00.402Z,18.69
2024-05-09T14:21:45.479Z,18.18
2024-05-09T14:24:14.711Z,17.98
2024-05-09T14:26:47.709Z,17.72
2024-05-09T14:29:27.813Z,17.59
2024-05-09T14:32:03.815Z,17.52
2024-05-09T14:34:38.980Z,17.66
2024-05-09T14:37:16.578Z,17.39
2024-05-09T14:39:48.198Z,17.42
2024-05-09T14:42:21.489Z,17.38
2024-05-09T14:44:52.759Z,17.41
2024-05-09T14:47:29.117Z,17.43
2024-05-09T14:49:58.601Z,17.64
2024-05-09T14:52:31.171Z,17.80
2024-05-09T14:55:01.412Z,17.32
2024-05-09T14:57:35.774Z,17.27
2024-05-09T15:00:17.347Z,17.14
2024-05-09T15:08:44.035Z,16.75
2024-05-09T15:11:52.548Z,16.76
2024-05-09T15:14:24.707Z,16.92
2024-05-09T15:19:58.448Z,16.71
2024-05-09T15:22:28.982Z,16.67
2024-05-09T15:25:10.802Z,16.57
2024-05-09T15:27:42.513Z,16.63
2024-05-09T15:30:18.138Z,16.76
2024-05-09T15:32:52.240Z,16.66
2024-05-09T15:35:23.748Z,16.53
2024-05-09T15:37:51.459Z,16.38
2024-05-09T15:40:31.728Z,16.28
2024-05-09T15:43:06.898Z,16.45
2024-05-09T15:45:39.802Z,16.58
2024-05-09T15:48:12.489Z,16.51
2024-05-09T15:50:44.479Z,16.38
2024-05-09T15:53:16.704Z,16.01
2024-05-09T15:55:47.415Z,15.96
2024-05-09T15:58:15.487Z,15.76
2024-05-09T16:00:53.488Z,15.57
2024-05-09T16:03:37.358Z,15.37
2024-05-09T16:06:11.705Z,15.35
2024-05-09T16:08:47.359Z,15.39
2024-05-09T16:11:20.536Z,15.47
2024-05-09T16:13:52.433Z,15.53
2024-05-09T16:16:23.734Z,15.61
2024-05-09T16:18:51.817Z,16.06
2024-05-09T16:21:24.567Z,16.71
2024-05-09T16:23:52.729Z,16.95
2024-05-09T16:26:22.876Z,17.74
2024-05-09T16:28:51.816Z,18.54
2024-05-09T16:31:30.807Z,18.82
2024-05-09T16:34:01.212Z,18.20
2024-05-09T16:36:34.412Z,16.76
2024-05-09T16:39:02.250Z,15.68
2024-05-09T16:41:32.356Z,15.35
2024-05-09T16:44:02.429Z,14.89
2024-05-09T16:46:32.506Z,14.67
2024-05-09T16:49:00.652Z,14.48
2024-05-09T16:51:33.893Z,14.37
2024-05-09T16:54:01.749Z,14.31
2024-05-09T16:56:31.882Z,14.31
2024-05-09T16:59:00.086Z,14.41
2024-05-09T17:01:31.362Z,14.47
2024-05-09T17:03:59.759Z,14.43
2024-05-09T17:06:30.423Z,14.29
2024-05-09T17:09:08.432Z,14.28
2024-05-09T17:11:44.466Z,14.35
2024-05-09T17:14:12.146Z,14.32
2024-05-09T17:16:42.123Z,14.31
2024-05-09T17:19:10.259Z,14.29
2024-05-09T17:21:41.131Z,14.17
2024-05-09T17:24:11.613Z,14.14
2024-05-09T17:26:42.278Z,14.14
2024-05-09T17:29:12.485Z,14.20
2024-05-09T17:31:43.028Z,14.30
2024-05-09T17:34:11.240Z,14.22
2024-05-09T17:36:41.610Z,14.13
2024-05-09T17:39:12.300Z,13.97
2024-05-09T17:41:42.281Z,13.80
2024-05-09T17:44:10.263Z,13.65
2024-05-09T17:46:40.255Z,13.54
2024-05-09T17:49:08.038Z,13.46
2024-05-09T17:51:38.702Z,13.33
2024-05-09T17:54:07.147Z,13.20
2024-05-09T17:56:40.943Z,13.06
2024-05-09T17:59:11.277Z,12.87
2024-05-09T18:01:42.383Z,12.68
2024-05-09T18:04:10.920Z,12.49
2024-05-09T18:06:44.134Z,12.34
2024-05-09T18:09:11.915Z,12.16
2024-05-09T18:11:44.976Z,11.98
2024-05-09T18:14:12.723Z,11.85
2024-05-09T18:16:42.808Z,11.71
2024-05-09T18:19:13.891Z,11.54
2024-05-09T18:21:43.972Z,11.38
2024-05-09T18:24:12.997Z,11.21
2024-05-09T18:26:45.717Z,11.00
2024-05-09T18:29:13.407Z,10.89
2024-05-09T18:31:43.621Z,10.71
2024-05-09T18:34:13.461Z,10.53
2024-05-09T18:36:44.202Z,10.39
2024-05-09T18:39:11.789Z,10.23
2024-05-09T18:41:41.664Z,10.13
2024-05-09T18:44:12.151Z,9.98
2024-05-09T18:46:42.895Z,9.84
2024-05-09T18:49:10.751Z,9.75
2024-05-09T18:51:41.120Z,9.69
2024-05-09T18:54:09.001Z,9.63
2024-05-09T18:56:40.163Z,9.60
2024-05-09T18:59:09.010Z,9.54
2024-05-09T19:01:42.446Z,9.56
2024-05-09T19:04:10.879Z,9.43
2024-05-09T19:06:42.823Z,9.34
2024-05-09T19:09:13.732Z,9.25
2024-05-09T19:11:44.158Z,9.12
2024-05-09T19:14:13.912Z,9.03
2024-05-09T19:16:48.187Z,8.97
2024-05-09T19:19:16.745Z,8.79
2024-05-09T19:21:46.775Z,8.70
2024-05-09T19:24:17.598Z,8.71
2024-05-09T19:26:50.931Z,8.78
2024-05-09T19:29:20.080Z,8.79
2024-05-09T19:31:59.516Z,8.79
2024-05-09T19:34:29.683Z,8.73
2024-05-09T19:37:01.718Z,8.60
2024-05-09T19:39:30.655Z,8.54
2024-05-09T19:42:00.959Z,8.51
2024-05-09T19:44:29.345Z,8.44
2024-05-09T19:47:02.471Z,8.42
2024-05-09T19:49:31.124Z,8.45
2024-05-09T19:52:05.605Z,8.40
2024-05-09T19:54:34.523Z,8.35
2024-05-09T19:57:04.848Z,8.30
2024-05-09T19:59:34.943Z,8.26
2024-05-09T20:02:08.237Z,8.25
2024-05-09T20:04:36.498Z,8.19
2024-05-09T20:07:07.425Z,8.24
2024-05-09T20:09:36.811Z,8.26
2024-05-09T20:12:07.242Z,8.10
2024-05-09T20:14:39.749Z,7.95
2024-05-09T20:17:13.459Z,7.89
2024-05-09T20:19:44.463Z,7.77
2024-05-09T20:22:15.233Z,7.75
2024-05-09T20:24:44.210Z,7.67
2024-05-09T20:27:14.822Z,7.62
2024-05-09T20:29:42.807Z,7.58
2024-05-09T20:32:15.874Z,7.61
2024-05-09T20:34:46.494Z,7.52
2024-05-09T20:37:16.823Z,7.51
2024-05-09T20:39:44.569Z,7.49
2024-05-09T20:42:15.413Z,7.38
2024-05-09T20:44:43.214Z,7.26
2024-05-09T20:47:15.963Z,7.28
2024-05-09T20:49:47.312Z,7.22
2024-05-09T20:52:20.916Z,7.10
2024-05-09T20:54:49.088Z,7.12
2024-05-09T20:57:19.061Z,7.04
2024-05-09T20:59:46.933Z,6.93
2024-05-09T21:02:20.616Z,6.85
2024-05-09T21:04:51.992Z,6.82
2024-05-09T21:07:22.259Z,6.81
2024-05-09T21:09:50.308Z,6.78
2024-05-09T21:12:20.930Z,6.70
2024-05-09T21:14:48.576Z,6.65
2024-05-09T21:17:22.680Z,6.59
2024-05-09T21:19:50.846Z,6.57
2024-05-09T21:22:21.162Z,6.52
2024-05-09T21:24:49.112Z,6.47
2024-05-09T21:27:19.730Z,6.41
2024-05-09T21:29:47.621Z,6.38
2024-05-09T21:32:17.947Z,6.31
2024-05-09T21:34:49.078Z,6.28
2024-05-09T21:37:19.285Z,6.27
2024-05-09T21:39:47.099Z,6.24
2024-05-09T21:42:17.074Z,6.20
2024-05-09T21:44:44.885Z,6.26
2024-05-09T21:47:15.141Z,6.30
2024-05-09T21:49:42.947Z,6.33
2024-05-09T21:52:27.427Z,6.36
2024-05-09T21:54:55.545Z,6.35
2024-05-09T21:57:25.594Z,6.44
2024-05-09T21:59:53.340Z,6.52
2024-05-09T22:02:23.375Z,6.56
2024-05-09T22:04:52.325Z,6.63
2024-05-09T22:07:25.182Z,6.66
2024-05-09T22:09:52.962Z,6.69
2024-05-09T22:12:22.879Z,6.72
2024-05-09T22:14:52.206Z,6.79
2024-05-09T22:17:22.309Z,6.89
2024-05-09T22:19:50.058Z,6.98
2024-05-09T22:22:28.217Z,7.09
2024-05-09T22:25:09.560Z,7.17
2024-05-09T22:27:39.943Z,7.25
2024-05-09T22:30:11.876Z,7.29
2024-05-09T22:32:48.916Z,7.33
2024-05-09T22:35:19.711Z,7.35
2024-05-09T22:37:52.699Z,7.36
2024-05-09T22:40:29.503Z,7.38
2024-05-09T22:43:08.961Z,7.40
2024-05-09T22:45:37.008Z,7.45
2024-05-09T22:48:07.611Z,7.58
2024-05-09T22:50:35.991Z,7.73
2024-05-09T22:53:08.765Z,7.85
2024-05-09T22:55:36.496Z,7.97
2024-05-09T22:58:06.914Z,8.07
2024-05-09T23:00:35.175Z,8.19
2024-05-09T23:03:05.501Z,8.32
2024-05-09T23:05:34.607Z,8.45
2024-05-09T23:08:05.356Z,8.58
2024-05-09T23:10:38.019Z,8.71
2024-05-09T23:13:08.814Z,8.81
2024-05-09T23:15:37.687Z,8.93
2024-05-09T23:18:08.686Z,9.02
2024-05-09T23:20:39.388Z,9.09
2024-05-09T23:23:11.857Z,9.15
2024-05-09T23:25:43.396Z,9.21
2024-05-09T23:28:13.765Z,9.25
2024-05-09T23:30:42.285Z,9.28
2024-05-09T23:33:13.766Z,9.27
2024-05-09T23:35:45.045Z,9.32
2024-05-09T23:38:16.158Z,9.36
2024-05-09T23:40:46.902Z,9.42
2024-05-09T23:43:17.130Z,9.45
2024-05-09T23:45:45.172Z,9.50
2024-05-09T23:48:16.716Z,9.55
2024-05-09T23:50:44.442Z,9.60
2024-05-09T23:53:14.569Z,9.64
2024-05-09T23:55:42.548Z,9.69
2024-05-09T23:58:17.231Z,9.76
